This is the latest recevied weather packets stored in our database for station/object KJ5FA-10. If no packets are shown the sender has not sent any weather packets the latest 10 day(s).
| Time | Temp. | Humidity | Pressure | Rain* | Wind** | Luminosity | Snow |
|---|---|---|---|---|---|---|---|
| 1777466373 | 16.11° C | 83% | 1016.9 hPa | 0 mm | - | - | - |
| 1777465473 | 16.11° C | 84% | 1016.8 hPa | 0 mm | - | - | - |
| 1777464574 | 16.67° C | 84% | 1016.7 hPa | 0 mm | - | - | - |
| 1777463674 | 16.67° C | 84% | 1016.2 hPa | 0 mm | - | - | - |
| 1777461874 | 17.22° C | 91% | 1015.5 hPa | 0 mm | - | - | - |
| 1777460975 | 17.22° C | 95% | 1015.2 hPa | 0 mm | - | - | - |
| 1777460074 | 16.67° C | 96% | 1014.8 hPa | 0 mm | - | - | - |
| 1777459174 | 16.67° C | 95% | 1014.4 hPa | 0 mm | - | - | - |
| 1777458274 | 16.67° C | 94% | 1013.8 hPa | 0 mm | - | - | - |
| 1777457374 | 17.22° C | 93% | 1013.9 hPa | 0 mm | - | - | - |
| 1777453774 | 17.78° C | 94% | 1013.8 hPa | 0 mm | - | - | - |
| 1777452874 | 18.33° C | 94% | 1013.6 hPa | 0 mm | - | - | - |
| 1777451074 | 18.89° C | 92% | 1013.8 hPa | 0 mm | - | - | - |
| 1777450174 | 19.44° C | 91% | 1013.6 hPa | 0 mm | - | - | - |
| 1777449273 | 19.44° C | 92% | 1013.5 hPa | 0 mm | - | - | - |
| 1777446995 | 20° C | 90% | 1013.9 hPa | 0 mm | - | - | - |
| 1777446634 | 20° C | 91% | 1013.8 hPa | 0 mm | - | - | - |
| 1777397071 | 25° C | 86% | 1014.8 hPa | 0 mm | - | - | - |
| 1777395271 | 25° C | 86% | 1014.7 hPa | 0 mm | - | - | - |
| 1777394371 | 25° C | 86% | 1015.2 hPa | 0 mm | - | - | - |
| 1777393471 | 25° C | 84% | 1015 hPa | 0 mm | - | - | - |
| 1777392571 | 25.56° C | 83% | 1015.1 hPa | 0 mm | - | - | - |
| 1777391671 | 25° C | 85% | 1014.8 hPa | 0 mm | - | - | - |
| 1777390771 | 23.89° C | 88% | 1015.3 hPa | 0 mm | - | - | - |
| 1777389872 | 23.89° C | 88% | 1015.6 hPa | 0 mm | - | - | - |
* Rain latest hour (hover to see other rain measurements)
** Current wind speed in m/s (hover to see current wind gust speed)